sensor_id;sensor_type;location;lat;lon;timestamp;temperature;humidity
3037;DHT22;1528;52.550;13.408;2023-02-26T00:02:23;2.60;56.30
3037;DHT22;1528;52.550;13.408;2023-02-26T00:05:09;2.60;54.60
3037;DHT22;1528;52.550;13.408;2023-02-26T00:07:54;2.50;53.60
3037;DHT22;1528;52.550;13.408;2023-02-26T00:10:40;2.60;54.10
3037;DHT22;1528;52.550;13.408;2023-02-26T00:13:26;2.60;53.90
3037;DHT22;1528;52.550;13.408;2023-02-26T00:16:21;2.60;53.40
3037;DHT22;1528;52.550;13.408;2023-02-26T00:19:09;2.60;51.90
3037;DHT22;1528;52.550;13.408;2023-02-26T00:21:56;2.60;51.10
3037;DHT22;1528;52.550;13.408;2023-02-26T00:24:42;2.50;52.10
3037;DHT22;1528;52.550;13.408;2023-02-26T00:27:27;2.50;52.00
3037;DHT22;1528;52.550;13.408;2023-02-26T00:30:14;2.60;50.30
3037;DHT22;1528;52.550;13.408;2023-02-26T00:33:01;2.60;51.90
3037;DHT22;1528;52.550;13.408;2023-02-26T00:35:48;2.70;51.20
3037;DHT22;1528;52.550;13.408;2023-02-26T00:38:34;2.60;51.80
3037;DHT22;1528;52.550;13.408;2023-02-26T00:41:21;2.70;51.40
3037;DHT22;1528;52.550;13.408;2023-02-26T00:44:07;2.70;50.90
3037;DHT22;1528;52.550;13.408;2023-02-26T00:46:56;2.80;51.20
3037;DHT22;1528;52.550;13.408;2023-02-26T00:49:54;2.80;50.60
3037;DHT22;1528;52.550;13.408;2023-02-26T00:52:56;2.90;51.20
3037;DHT22;1528;52.550;13.408;2023-02-26T00:55:44;2.80;50.10
3037;DHT22;1528;52.550;13.408;2023-02-26T00:58:30;2.90;49.30
3037;DHT22;1528;52.550;13.408;2023-02-26T01:01:16;3.00;48.90
3037;DHT22;1528;52.550;13.408;2023-02-26T01:04:02;2.90;48.70
3037;DHT22;1528;52.550;13.408;2023-02-26T01:06:51;2.90;49.10
3037;DHT22;1528;52.550;13.408;2023-02-26T01:09:38;2.90;49.10
3037;DHT22;1528;52.550;13.408;2023-02-26T01:12:24;2.80;49.20
3037;DHT22;1528;52.550;13.408;2023-02-26T01:15:10;2.90;48.80
3037;DHT22;1528;52.550;13.408;2023-02-26T01:18:03;3.00;49.20
3037;DHT22;1528;52.550;13.408;2023-02-26T01:20:53;2.90;48.00
3037;DHT22;1528;52.550;13.408;2023-02-26T01:23:46;3.00;48.20
3037;DHT22;1528;52.550;13.408;2023-02-26T01:26:33;3.00;48.40
3037;DHT22;1528;52.550;13.408;2023-02-26T01:29:19;3.00;48.40
3037;DHT22;1528;52.550;13.408;2023-02-26T01:32:07;3.10;48.70
3037;DHT22;1528;52.550;13.408;2023-02-26T01:35:00;3.10;47.30
3037;DHT22;1528;52.550;13.408;2023-02-26T01:37:53;3.20;47.40
3037;DHT22;1528;52.550;13.408;2023-02-26T01:44:13;3.20;47.60
3037;DHT22;1528;52.550;13.408;2023-02-26T01:47:05;3.10;46.90
3037;DHT22;1528;52.550;13.408;2023-02-26T01:49:54;3.20;46.30
3037;DHT22;1528;52.550;13.408;2023-02-26T01:56:04;3.10;48.10
3037;DHT22;1528;52.550;13.408;2023-02-26T01:58:53;3.10;46.30
3037;DHT22;1528;52.550;13.408;2023-02-26T02:01:40;3.10;45.80
3037;DHT22;1528;52.550;13.408;2023-02-26T02:04:26;3.10;46.80
3037;DHT22;1528;52.550;13.408;2023-02-26T02:07:11;3.20;45.60
3037;DHT22;1528;52.550;13.408;2023-02-26T02:09:57;3.20;45.60
3037;DHT22;1528;52.550;13.408;2023-02-26T02:12:49;3.20;46.90
3037;DHT22;1528;52.550;13.408;2023-02-26T02:15:41;3.30;45.40
3037;DHT22;1528;52.550;13.408;2023-02-26T02:18:37;3.40;45.40
3037;DHT22;1528;52.550;13.408;2023-02-26T02:21:49;3.30;45.50
3037;DHT22;1528;52.550;13.408;2023-02-26T02:24:45;3.30;45.30
3037;DHT22;1528;52.550;13.408;2023-02-26T02:27:43;3.30;44.40
3037;DHT22;1528;52.550;13.408;2023-02-26T02:30:36;3.40;44.60
3037;DHT22;1528;52.550;13.408;2023-02-26T02:33:29;3.30;44.50
3037;DHT22;1528;52.550;13.408;2023-02-26T02:36:22;3.20;45.00
3037;DHT22;1528;52.550;13.408;2023-02-26T02:39:12;3.20;44.90
3037;DHT22;1528;52.550;13.408;2023-02-26T02:42:02;3.30;45.70
3037;DHT22;1528;52.550;13.408;2023-02-26T02:44:52;3.40;44.60
3037;DHT22;1528;52.550;13.408;2023-02-26T02:47:40;3.20;44.70
3037;DHT22;1528;52.550;13.408;2023-02-26T02:50:32;3.20;44.30
3037;DHT22;1528;52.550;13.408;2023-02-26T02:53:21;3.30;44.70
3037;DHT22;1528;52.550;13.408;2023-02-26T02:56:11;3.30;44.00
3037;DHT22;1528;52.550;13.408;2023-02-26T02:59:03;3.30;43.50
3037;DHT22;1528;52.550;13.408;2023-02-26T03:01:55;3.20;43.90
3037;DHT22;1528;52.550;13.408;2023-02-26T03:04:42;3.10;43.60
3037;DHT22;1528;52.550;13.408;2023-02-26T03:07:31;3.00;44.30
3037;DHT22;1528;52.550;13.408;2023-02-26T03:10:18;2.90;44.40
3037;DHT22;1528;52.550;13.408;2023-02-26T03:13:04;3.00;45.00
3037;DHT22;1528;52.550;13.408;2023-02-26T03:15:59;3.00;45.00
3037;DHT22;1528;52.550;13.408;2023-02-26T03:18:53;2.90;45.50
3037;DHT22;1528;52.550;13.408;2023-02-26T03:21:47;3.10;43.70
3037;DHT22;1528;52.550;13.408;2023-02-26T03:24:37;3.10;44.30
3037;DHT22;1528;52.550;13.408;2023-02-26T03:27:27;3.10;44.70
3037;DHT22;1528;52.550;13.408;2023-02-26T03:30:19;3.10;43.90
3037;DHT22;1528;52.550;13.408;2023-02-26T03:33:11;3.10;44.90
3037;DHT22;1528;52.550;13.408;2023-02-26T03:36:02;3.20;45.00
3037;DHT22;1528;52.550;13.408;2023-02-26T03:38:53;3.20;44.70
3037;DHT22;1528;52.550;13.408;2023-02-26T03:41:43;3.20;43.90
3037;DHT22;1528;52.550;13.408;2023-02-26T03:44:32;3.20;44.20
3037;DHT22;1528;52.550;13.408;2023-02-26T03:47:20;3.30;44.80
3037;DHT22;1528;52.550;13.408;2023-02-26T03:50:08;3.20;44.20
3037;DHT22;1528;52.550;13.408;2023-02-26T03:52:57;3.10;44.60
3037;DHT22;1528;52.550;13.408;2023-02-26T03:55:46;3.10;44.70
3037;DHT22;1528;52.550;13.408;2023-02-26T03:58:35;3.20;44.00
3037;DHT22;1528;52.550;13.408;2023-02-26T04:01:25;3.20;44.80
3037;DHT22;1528;52.550;13.408;2023-02-26T04:04:22;3.20;44.60
3037;DHT22;1528;52.550;13.408;2023-02-26T04:07:12;3.20;43.90
3037;DHT22;1528;52.550;13.408;2023-02-26T04:09:59;3.30;44.30
3037;DHT22;1528;52.550;13.408;2023-02-26T04:12:46;3.40;43.90
3037;DHT22;1528;52.550;13.408;2023-02-26T04:15:45;3.40;43.80
3037;DHT22;1528;52.550;13.408;2023-02-26T04:18:33;3.20;43.90
3037;DHT22;1528;52.550;13.408;2023-02-26T04:21:21;3.40;44.30
3037;DHT22;1528;52.550;13.408;2023-02-26T04:24:06;3.50;43.00
3037;DHT22;1528;52.550;13.408;2023-02-26T04:26:52;3.40;44.10
3037;DHT22;1528;52.550;13.408;2023-02-26T04:29:38;3.30;44.00
3037;DHT22;1528;52.550;13.408;2023-02-26T04:32:25;3.40;44.80
3037;DHT22;1528;52.550;13.408;2023-02-26T04:35:10;3.40;43.80
3037;DHT22;1528;52.550;13.408;2023-02-26T04:37:56;3.50;44.20
3037;DHT22;1528;52.550;13.408;2023-02-26T04:40:41;3.50;42.80
3037;DHT22;1528;52.550;13.408;2023-02-26T04:43:27;3.50;43.10
3037;DHT22;1528;52.550;13.408;2023-02-26T04:46:13;3.50;42.40
3037;DHT22;1528;52.550;13.408;2023-02-26T04:49:00;3.50;41.70
3037;DHT22;1528;52.550;13.408;2023-02-26T04:51:45;3.40;42.80
3037;DHT22;1528;52.550;13.408;2023-02-26T04:54:31;3.40;42.80
3037;DHT22;1528;52.550;13.408;2023-02-26T04:57:17;3.50;42.10
3037;DHT22;1528;52.550;13.408;2023-02-26T05:00:03;3.50;41.90
3037;DHT22;1528;52.550;13.408;2023-02-26T05:02:51;3.60;40.80
3037;DHT22;1528;52.550;13.408;2023-02-26T05:05:37;3.50;41.00
3037;DHT22;1528;52.550;13.408;2023-02-26T05:08:23;3.30;41.20
3037;DHT22;1528;52.550;13.408;2023-02-26T05:11:09;3.40;42.00
3037;DHT22;1528;52.550;13.408;2023-02-26T05:13:55;3.50;41.90
3037;DHT22;1528;52.550;13.408;2023-02-26T05:16:41;3.50;41.60
3037;DHT22;1528;52.550;13.408;2023-02-26T05:19:26;3.50;41.70
3037;DHT22;1528;52.550;13.408;2023-02-26T05:22:13;3.70;41.20
3037;DHT22;1528;52.550;13.408;2023-02-26T05:24:59;3.70;41.10
3037;DHT22;1528;52.550;13.408;2023-02-26T05:27:44;3.60;41.00
3037;DHT22;1528;52.550;13.408;2023-02-26T05:30:30;3.70;40.60
3037;DHT22;1528;52.550;13.408;2023-02-26T05:33:15;3.60;40.20
3037;DHT22;1528;52.550;13.408;2023-02-26T05:36:01;3.60;39.60
3037;DHT22;1528;52.550;13.408;2023-02-26T05:38:48;3.60;39.60
3037;DHT22;1528;52.550;13.408;2023-02-26T05:41:33;3.50;39.90
3037;DHT22;1528;52.550;13.408;2023-02-26T05:44:19;3.60;39.70
3037;DHT22;1528;52.550;13.408;2023-02-26T05:47:05;3.60;39.60
3037;DHT22;1528;52.550;13.408;2023-02-26T05:49:50;3.60;39.30
3037;DHT22;1528;52.550;13.408;2023-02-26T05:52:36;3.60;38.80
3037;DHT22;1528;52.550;13.408;2023-02-26T05:55:23;3.70;39.60
3037;DHT22;1528;52.550;13.408;2023-02-26T05:58:09;3.80;39.30
3037;DHT22;1528;52.550;13.408;2023-02-26T06:00:57;3.50;39.20
3037;DHT22;1528;52.550;13.408;2023-02-26T06:03:43;3.50;40.00
3037;DHT22;1528;52.550;13.408;2023-02-26T06:06:28;3.50;39.30
3037;DHT22;1528;52.550;13.408;2023-02-26T06:09:14;3.50;39.30
3037;DHT22;1528;52.550;13.408;2023-02-26T06:12:01;3.60;39.20
3037;DHT22;1528;52.550;13.408;2023-02-26T06:14:46;3.60;38.90
3037;DHT22;1528;52.550;13.408;2023-02-26T06:17:32;3.60;39.40
3037;DHT22;1528;52.550;13.408;2023-02-26T06:20:18;3.50;39.40
3037;DHT22;1528;52.550;13.408;2023-02-26T06:23:03;3.60;39.00
3037;DHT22;1528;52.550;13.408;2023-02-26T06:25:50;3.60;38.90
3037;DHT22;1528;52.550;13.408;2023-02-26T06:28:36;3.40;39.60
3037;DHT22;1528;52.550;13.408;2023-02-26T06:31:22;3.40;39.80
3037;DHT22;1528;52.550;13.408;2023-02-26T06:34:07;3.50;39.60
3037;DHT22;1528;52.550;13.408;2023-02-26T06:36:53;3.50;39.40
3037;DHT22;1528;52.550;13.408;2023-02-26T06:39:39;3.70;39.10
3037;DHT22;1528;52.550;13.408;2023-02-26T06:42:24;3.80;38.20
3037;DHT22;1528;52.550;13.408;2023-02-26T06:45:11;3.90;37.20
3037;DHT22;1528;52.550;13.408;2023-02-26T06:47:57;3.70;37.60
3037;DHT22;1528;52.550;13.408;2023-02-26T06:50:43;3.60;37.90
3037;DHT22;1528;52.550;13.408;2023-02-26T06:53:28;3.70;37.90
3037;DHT22;1528;52.550;13.408;2023-02-26T06:56:14;3.60;39.50
3037;DHT22;1528;52.550;13.408;2023-02-26T06:59:00;3.70;37.60
3037;DHT22;1528;52.550;13.408;2023-02-26T07:01:47;3.80;37.50
3037;DHT22;1528;52.550;13.408;2023-02-26T07:04:32;4.00;38.40
3037;DHT22;1528;52.550;13.408;2023-02-26T07:07:18;3.90;37.00
3037;DHT22;1528;52.550;13.408;2023-02-26T07:10:04;3.90;38.20
3037;DHT22;1528;52.550;13.408;2023-02-26T07:12:50;3.90;37.80
3037;DHT22;1528;52.550;13.408;2023-02-26T07:15:35;3.90;37.30
3037;DHT22;1528;52.550;13.408;2023-02-26T07:18:22;3.80;37.10
3037;DHT22;1528;52.550;13.408;2023-02-26T07:21:08;3.80;37.50
3037;DHT22;1528;52.550;13.408;2023-02-26T07:23:54;3.80;37.20
3037;DHT22;1528;52.550;13.408;2023-02-26T07:26:39;3.80;37.10
3037;DHT22;1528;52.550;13.408;2023-02-26T07:29:25;3.70;37.70
3037;DHT22;1528;52.550;13.408;2023-02-26T07:32:11;3.70;37.30
3037;DHT22;1528;52.550;13.408;2023-02-26T07:34:58;3.60;37.20
3037;DHT22;1528;52.550;13.408;2023-02-26T07:37:44;3.60;36.70
3037;DHT22;1528;52.550;13.408;2023-02-26T07:40:29;3.60;37.00
3037;DHT22;1528;52.550;13.408;2023-02-26T07:43:15;3.80;36.90
3037;DHT22;1528;52.550;13.408;2023-02-26T07:46:01;3.70;37.10
3037;DHT22;1528;52.550;13.408;2023-02-26T07:48:46;3.80;36.70
3037;DHT22;1528;52.550;13.408;2023-02-26T07:51:33;3.70;37.40
3037;DHT22;1528;52.550;13.408;2023-02-26T07:54:19;3.80;36.40
3037;DHT22;1528;52.550;13.408;2023-02-26T07:57:05;3.70;36.60
3037;DHT22;1528;52.550;13.408;2023-02-26T07:59:51;3.80;36.70
3037;DHT22;1528;52.550;13.408;2023-02-26T08:02:36;3.90;36.00
3037;DHT22;1528;52.550;13.408;2023-02-26T08:05:22;3.80;36.00
3037;DHT22;1528;52.550;13.408;2023-02-26T08:08:09;3.60;36.50
3037;DHT22;1528;52.550;13.408;2023-02-26T08:10:54;3.90;36.20
3037;DHT22;1528;52.550;13.408;2023-02-26T08:13:40;3.80;36.30
3037;DHT22;1528;52.550;13.408;2023-02-26T08:16:26;3.70;35.70
3037;DHT22;1528;52.550;13.408;2023-02-26T08:19:11;3.80;36.40
3037;DHT22;1528;52.550;13.408;2023-02-26T08:21:57;3.80;35.20
3037;DHT22;1528;52.550;13.408;2023-02-26T08:24:44;3.80;35.90
3037;DHT22;1528;52.550;13.408;2023-02-26T08:27:29;3.90;34.80
3037;DHT22;1528;52.550;13.408;2023-02-26T08:30:15;3.90;35.20
3037;DHT22;1528;52.550;13.408;2023-02-26T08:33:01;3.80;35.20
3037;DHT22;1528;52.550;13.408;2023-02-26T08:35:47;3.90;35.60
3037;DHT22;1528;52.550;13.408;2023-02-26T08:38:33;4.00;35.70
3037;DHT22;1528;52.550;13.408;2023-02-26T08:41:20;3.90;35.20
3037;DHT22;1528;52.550;13.408;2023-02-26T08:44:06;3.90;36.50
3037;DHT22;1528;52.550;13.408;2023-02-26T08:46:51;3.90;37.70
3037;DHT22;1528;52.550;13.408;2023-02-26T08:49:37;3.90;36.10
3037;DHT22;1528;52.550;13.408;2023-02-26T08:52:23;4.00;36.60
3037;DHT22;1528;52.550;13.408;2023-02-26T08:55:09;4.10;36.60
3037;DHT22;1528;52.550;13.408;2023-02-26T08:57:56;4.20;34.70
3037;DHT22;1528;52.550;13.408;2023-02-26T09:00:41;4.30;33.80
3037;DHT22;1528;52.550;13.408;2023-02-26T09:03:27;4.30;33.00
3037;DHT22;1528;52.550;13.408;2023-02-26T09:06:13;4.20;34.00
3037;DHT22;1528;52.550;13.408;2023-02-26T09:08:59;4.20;33.80
3037;DHT22;1528;52.550;13.408;2023-02-26T09:11:44;4.30;34.50
3037;DHT22;1528;52.550;13.408;2023-02-26T09:14:31;4.40;33.90
3037;DHT22;1528;52.550;13.408;2023-02-26T09:17:16;4.50;33.20
3037;DHT22;1528;52.550;13.408;2023-02-26T09:20:03;4.50;33.10
3037;DHT22;1528;52.550;13.408;2023-02-26T09:22:48;4.40;32.10
3037;DHT22;1528;52.550;13.408;2023-02-26T09:25:34;4.50;32.60
3037;DHT22;1528;52.550;13.408;2023-02-26T09:28:20;4.60;31.50
3037;DHT22;1528;52.550;13.408;2023-02-26T09:31:07;4.50;31.10
3037;DHT22;1528;52.550;13.408;2023-02-26T09:33:52;4.50;31.90
3037;DHT22;1528;52.550;13.408;2023-02-26T09:36:38;4.40;33.10
3037;DHT22;1528;52.550;13.408;2023-02-26T09:39:24;4.40;33.60
3037;DHT22;1528;52.550;13.408;2023-02-26T09:42:19;4.50;32.60
3037;DHT22;1528;52.550;13.408;2023-02-26T09:45:12;4.60;31.60
3037;DHT22;1528;52.550;13.408;2023-02-26T09:48:05;4.50;31.80
3037;DHT22;1528;52.550;13.408;2023-02-26T09:50:52;4.60;32.60
3037;DHT22;1528;52.550;13.408;2023-02-26T09:53:39;4.70;31.30
3037;DHT22;1528;52.550;13.408;2023-02-26T09:56:25;4.80;30.00
3037;DHT22;1528;52.550;13.408;2023-02-26T09:59:13;5.00;30.30
3037;DHT22;1528;52.550;13.408;2023-02-26T10:02:03;5.00;29.80
3037;DHT22;1528;52.550;13.408;2023-02-26T10:04:58;5.10;29.10
3037;DHT22;1528;52.550;13.408;2023-02-26T10:07:50;5.10;28.50
3037;DHT22;1528;52.550;13.408;2023-02-26T10:10:46;5.10;28.30
3037;DHT22;1528;52.550;13.408;2023-02-26T10:13:36;5.10;28.90
3037;DHT22;1528;52.550;13.408;2023-02-26T10:16:26;5.40;28.30
3037;DHT22;1528;52.550;13.408;2023-02-26T10:19:18;5.50;27.90
3037;DHT22;1528;52.550;13.408;2023-02-26T10:22:15;5.70;26.90
3037;DHT22;1528;52.550;13.408;2023-02-26T10:25:04;5.80;26.10
3037;DHT22;1528;52.550;13.408;2023-02-26T10:27:55;5.70;24.90
3037;DHT22;1528;52.550;13.408;2023-02-26T10:30:47;5.70;24.60
3037;DHT22;1528;52.550;13.408;2023-02-26T10:33:38;5.60;25.20
3037;DHT22;1528;52.550;13.408;2023-02-26T10:36:27;5.60;24.80
3037;DHT22;1528;52.550;13.408;2023-02-26T10:39:22;5.60;25.10
3037;DHT22;1528;52.550;13.408;2023-02-26T10:42:14;5.70;23.70
3037;DHT22;1528;52.550;13.408;2023-02-26T10:45:12;5.60;23.00
3037;DHT22;1528;52.550;13.408;2023-02-26T10:48:16;5.60;23.60
3037;DHT22;1528;52.550;13.408;2023-02-26T10:51:12;5.60;23.20
3037;DHT22;1528;52.550;13.408;2023-02-26T10:54:03;5.70;23.50
3037;DHT22;1528;52.550;13.408;2023-02-26T10:56:50;5.80;22.70
3037;DHT22;1528;52.550;13.408;2023-02-26T10:59:35;5.90;22.60
3037;DHT22;1528;52.550;13.408;2023-02-26T11:02:33;6.10;22.30
3037;DHT22;1528;52.550;13.408;2023-02-26T11:05:22;6.10;20.90
3037;DHT22;1528;52.550;13.408;2023-02-26T11:08:14;6.00;20.70
3037;DHT22;1528;52.550;13.408;2023-02-26T11:11:01;5.90;21.30
3037;DHT22;1528;52.550;13.408;2023-02-26T11:13:48;5.90;21.70
3037;DHT22;1528;52.550;13.408;2023-02-26T11:16:34;6.10;21.70
3037;DHT22;1528;52.550;13.408;2023-02-26T11:19:28;6.20;21.70
3037;DHT22;1528;52.550;13.408;2023-02-26T11:22:15;6.40;21.90
3037;DHT22;1528;52.550;13.408;2023-02-26T11:25:01;6.80;20.80
3037;DHT22;1528;52.550;13.408;2023-02-26T11:27:48;6.90;19.50
3037;DHT22;1528;52.550;13.408;2023-02-26T11:30:37;6.70;19.60
3037;DHT22;1528;52.550;13.408;2023-02-26T11:33:26;6.60;20.50
3037;DHT22;1528;52.550;13.408;2023-02-26T11:36:14;6.40;20.70
3037;DHT22;1528;52.550;13.408;2023-02-26T11:39:02;6.50;20.10
3037;DHT22;1528;52.550;13.408;2023-02-26T11:41:51;6.40;20.30
3037;DHT22;1528;52.550;13.408;2023-02-26T11:44:40;6.30;20.30
3037;DHT22;1528;52.550;13.408;2023-02-26T11:47:29;6.20;19.70
3037;DHT22;1528;52.550;13.408;2023-02-26T11:50:19;6.50;19.80
3037;DHT22;1528;52.550;13.408;2023-02-26T11:53:16;6.70;19.20
3037;DHT22;1528;52.550;13.408;2023-02-26T11:56:09;7.00;17.70
3037;DHT22;1528;52.550;13.408;2023-02-26T11:58:58;7.20;16.80
3037;DHT22;1528;52.550;13.408;2023-02-26T12:01:47;7.20;16.90
3037;DHT22;1528;52.550;13.408;2023-02-26T12:04:34;7.30;17.20
3037;DHT22;1528;52.550;13.408;2023-02-26T12:07:20;7.50;17.40
3037;DHT22;1528;52.550;13.408;2023-02-26T12:10:12;7.60;16.90
3037;DHT22;1528;52.550;13.408;2023-02-26T12:13:06;7.50;15.60
3037;DHT22;1528;52.550;13.408;2023-02-26T12:15:58;7.30;15.40
3037;DHT22;1528;52.550;13.408;2023-02-26T12:18:53;7.20;16.40
3037;DHT22;1528;52.550;13.408;2023-02-26T12:21:59;7.30;16.60
3037;DHT22;1528;52.550;13.408;2023-02-26T12:25:17;7.80;15.90
3037;DHT22;1528;52.550;13.408;2023-02-26T12:28:38;7.80;14.10
3037;DHT22;1528;52.550;13.408;2023-02-26T12:35:33;7.20;15.00
3037;DHT22;1528;52.550;13.408;2023-02-26T12:38:29;7.10;15.80
3037;DHT22;1528;52.550;13.408;2023-02-26T12:44:52;7.30;15.40
3037;DHT22;1528;52.550;13.408;2023-02-26T12:47:51;7.20;14.60
3037;DHT22;1528;52.550;13.408;2023-02-26T12:50:55;7.30;13.90
3037;DHT22;1528;52.550;13.408;2023-02-26T12:57:22;7.10;15.50
3037;DHT22;1528;52.550;13.408;2023-02-26T13:10:09;7.30;14.90
3037;DHT22;1528;52.550;13.408;2023-02-26T13:13:12;7.30;15.80
3037;DHT22;1528;52.550;13.408;2023-02-26T13:16:17;7.40;14.50
3037;DHT22;1528;52.550;13.408;2023-02-26T13:19:14;7.30;15.20
3037;DHT22;1528;52.550;13.408;2023-02-26T13:22:07;7.50;15.10
3037;DHT22;1528;52.550;13.408;2023-02-26T13:25:00;7.60;14.40
3037;DHT22;1528;52.550;13.408;2023-02-26T13:27:50;7.60;14.60
3037;DHT22;1528;52.550;13.408;2023-02-26T13:30:41;7.40;15.10
3037;DHT22;1528;52.550;13.408;2023-02-26T13:33:31;7.80;14.70
3037;DHT22;1528;52.550;13.408;2023-02-26T13:36:18;7.70;13.60
3037;DHT22;1528;52.550;13.408;2023-02-26T13:39:21;7.70;12.50
3037;DHT22;1528;52.550;13.408;2023-02-26T13:42:20;7.60;11.70
3037;DHT22;1528;52.550;13.408;2023-02-26T13:45:22;7.70;12.30
3037;DHT22;1528;52.550;13.408;2023-02-26T13:48:15;7.60;11.50
3037;DHT22;1528;52.550;13.408;2023-02-26T13:51:06;7.60;11.50
3037;DHT22;1528;52.550;13.408;2023-02-26T13:53:58;7.50;11.20
3037;DHT22;1528;52.550;13.408;2023-02-26T13:56:51;7.70;10.60
3037;DHT22;1528;52.550;13.408;2023-02-26T13:59:49;7.60;11.20
3037;DHT22;1528;52.550;13.408;2023-02-26T14:02:47;7.40;11.70
3037;DHT22;1528;52.550;13.408;2023-02-26T14:05:53;7.20;12.60
3037;DHT22;1528;52.550;13.408;2023-02-26T14:08:47;7.10;12.30
3037;DHT22;1528;52.550;13.408;2023-02-26T14:11:45;7.10;13.00
3037;DHT22;1528;52.550;13.408;2023-02-26T14:14:42;7.20;12.10
3037;DHT22;1528;52.550;13.408;2023-02-26T14:17:36;7.40;11.80
3037;DHT22;1528;52.550;13.408;2023-02-26T14:20:26;7.70;11.80
3037;DHT22;1528;52.550;13.408;2023-02-26T14:23:35;7.90;10.80
3037;DHT22;1528;52.550;13.408;2023-02-26T14:26:22;7.70;11.10
3037;DHT22;1528;52.550;13.408;2023-02-26T14:29:15;7.50;11.60
3037;DHT22;1528;52.550;13.408;2023-02-26T14:32:12;7.50;11.30
3037;DHT22;1528;52.550;13.408;2023-02-26T14:35:11;7.40;11.50
3037;DHT22;1528;52.550;13.408;2023-02-26T14:38:02;7.30;12.40
3037;DHT22;1528;52.550;13.408;2023-02-26T14:40:54;7.10;12.00
3037;DHT22;1528;52.550;13.408;2023-02-26T14:43:43;7.00;12.20
3037;DHT22;1528;52.550;13.408;2023-02-26T14:46:30;7.10;12.80
3037;DHT22;1528;52.550;13.408;2023-02-26T14:49:20;7.20;12.10
3037;DHT22;1528;52.550;13.408;2023-02-26T14:52:41;7.30;11.60
3037;DHT22;1528;52.550;13.408;2023-02-26T14:55:39;7.20;11.50
3037;DHT22;1528;52.550;13.408;2023-02-26T14:58:56;7.30;11.30
3037;DHT22;1528;52.550;13.408;2023-02-26T15:01:47;7.00;11.30
3037;DHT22;1528;52.550;13.408;2023-02-26T15:08:09;6.80;12.00
3037;DHT22;1528;52.550;13.408;2023-02-26T15:11:12;6.80;12.50
3037;DHT22;1528;52.550;13.408;2023-02-26T15:14:14;7.00;12.50
3037;DHT22;1528;52.550;13.408;2023-02-26T15:17:10;7.20;12.10
3037;DHT22;1528;52.550;13.408;2023-02-26T15:20:05;7.20;11.30
3037;DHT22;1528;52.550;13.408;2023-02-26T15:23:07;7.10;11.90
3037;DHT22;1528;52.550;13.408;2023-02-26T15:25:57;7.30;11.00
3037;DHT22;1528;52.550;13.408;2023-02-26T15:28:45;7.10;10.40
3037;DHT22;1528;52.550;13.408;2023-02-26T15:31:34;7.40;9.10
3037;DHT22;1528;52.550;13.408;2023-02-26T15:34:20;7.30;9.50
3037;DHT22;1528;52.550;13.408;2023-02-26T15:37:14;7.20;9.70
3037;DHT22;1528;52.550;13.408;2023-02-26T15:40:04;6.90;9.50
3037;DHT22;1528;52.550;13.408;2023-02-26T15:42:53;6.70;10.50
3037;DHT22;1528;52.550;13.408;2023-02-26T15:45:43;6.60;11.00
3037;DHT22;1528;52.550;13.408;2023-02-26T15:48:32;6.70;11.00
3037;DHT22;1528;52.550;13.408;2023-02-26T15:51:20;6.90;11.40
3037;DHT22;1528;52.550;13.408;2023-02-26T15:54:06;6.40;11.40
3037;DHT22;1528;52.550;13.408;2023-02-26T15:56:52;6.50;11.90
3037;DHT22;1528;52.550;13.408;2023-02-26T15:59:43;6.60;11.70
3037;DHT22;1528;52.550;13.408;2023-02-26T16:02:31;6.50;11.90
3037;DHT22;1528;52.550;13.408;2023-02-26T16:05:17;6.40;12.10
3037;DHT22;1528;52.550;13.408;2023-02-26T16:08:04;6.30;12.40
3037;DHT22;1528;52.550;13.408;2023-02-26T16:10:50;6.30;12.40
3037;DHT22;1528;52.550;13.408;2023-02-26T16:13:38;6.20;13.00
3037;DHT22;1528;52.550;13.408;2023-02-26T16:16:27;6.10;13.40
3037;DHT22;1528;52.550;13.408;2023-02-26T16:19:16;6.10;13.30
3037;DHT22;1528;52.550;13.408;2023-02-26T16:22:05;5.90;13.60
3037;DHT22;1528;52.550;13.408;2023-02-26T16:24:54;5.90;14.10
3037;DHT22;1528;52.550;13.408;2023-02-26T16:27:43;5.80;14.40
3037;DHT22;1528;52.550;13.408;2023-02-26T16:30:36;5.70;14.90
3037;DHT22;1528;52.550;13.408;2023-02-26T16:33:24;5.60;15.50
3037;DHT22;1528;52.550;13.408;2023-02-26T16:36:14;5.70;15.80
3037;DHT22;1528;52.550;13.408;2023-02-26T16:39:12;5.60;15.60
3037;DHT22;1528;52.550;13.408;2023-02-26T16:42:02;5.50;15.40
3037;DHT22;1528;52.550;13.408;2023-02-26T16:45:00;5.60;16.00
3037;DHT22;1528;52.550;13.408;2023-02-26T16:47:49;5.30;16.50
3037;DHT22;1528;52.550;13.408;2023-02-26T16:50:36;5.30;16.80
3037;DHT22;1528;52.550;13.408;2023-02-26T16:53:31;5.30;16.60
3037;DHT22;1528;52.550;13.408;2023-02-26T16:56:20;5.10;17.00
3037;DHT22;1528;52.550;13.408;2023-02-26T16:59:11;5.10;17.40
3037;DHT22;1528;52.550;13.408;2023-02-26T17:02:00;5.20;18.00
3037;DHT22;1528;52.550;13.408;2023-02-26T17:04:53;5.00;17.50
3037;DHT22;1528;52.550;13.408;2023-02-26T17:07:46;5.00;17.60
3037;DHT22;1528;52.550;13.408;2023-02-26T17:10:38;5.00;18.10
3037;DHT22;1528;52.550;13.408;2023-02-26T17:13:26;5.00;18.40
3037;DHT22;1528;52.550;13.408;2023-02-26T17:16:12;4.90;18.10
3037;DHT22;1528;52.550;13.408;2023-02-26T17:18:58;5.00;18.70
3037;DHT22;1528;52.550;13.408;2023-02-26T17:21:47;4.90;18.20
3037;DHT22;1528;52.550;13.408;2023-02-26T17:24:35;4.90;19.00
3037;DHT22;1528;52.550;13.408;2023-02-26T17:27:27;4.80;18.90
3037;DHT22;1528;52.550;13.408;2023-02-26T17:30:18;5.10;19.00
3037;DHT22;1528;52.550;13.408;2023-02-26T17:33:03;5.00;18.50
3037;DHT22;1528;52.550;13.408;2023-02-26T17:35:51;5.10;18.60
3037;DHT22;1528;52.550;13.408;2023-02-26T17:38:39;5.10;18.40
3037;DHT22;1528;52.550;13.408;2023-02-26T17:41:30;5.10;18.60
3037;DHT22;1528;52.550;13.408;2023-02-26T17:44:18;5.10;18.80
3037;DHT22;1528;52.550;13.408;2023-02-26T17:47:04;5.00;18.70
3037;DHT22;1528;52.550;13.408;2023-02-26T17:49:50;5.10;19.40
3037;DHT22;1528;52.550;13.408;2023-02-26T17:52:36;5.10;19.00
3037;DHT22;1528;52.550;13.408;2023-02-26T17:55:22;4.90;19.80
3037;DHT22;1528;52.550;13.408;2023-02-26T17:58:13;4.80;19.60
3037;DHT22;1528;52.550;13.408;2023-02-26T18:01:03;4.70;20.10
3037;DHT22;1528;52.550;13.408;2023-02-26T18:03:49;4.80;19.60
3037;DHT22;1528;52.550;13.408;2023-02-26T18:06:36;4.80;19.60
3037;DHT22;1528;52.550;13.408;2023-02-26T18:09:22;4.70;19.70
3037;DHT22;1528;52.550;13.408;2023-02-26T18:12:10;4.70;19.80
3037;DHT22;1528;52.550;13.408;2023-02-26T18:14:56;4.60;20.10
3037;DHT22;1528;52.550;13.408;2023-02-26T18:17:43;4.50;20.30
3037;DHT22;1528;52.550;13.408;2023-02-26T18:20:29;4.50;20.20
3037;DHT22;1528;52.550;13.408;2023-02-26T18:23:14;4.50;19.90
3037;DHT22;1528;52.550;13.408;2023-02-26T18:26:00;4.40;19.70
3037;DHT22;1528;52.550;13.408;2023-02-26T18:28:45;4.50;20.00
3037;DHT22;1528;52.550;13.408;2023-02-26T18:31:31;4.40;20.00
3037;DHT22;1528;52.550;13.408;2023-02-26T18:34:18;4.20;19.80
3037;DHT22;1528;52.550;13.408;2023-02-26T18:37:04;4.30;20.80
3037;DHT22;1528;52.550;13.408;2023-02-26T18:39:50;4.30;19.80
3037;DHT22;1528;52.550;13.408;2023-02-26T18:42:36;4.30;19.80
3037;DHT22;1528;52.550;13.408;2023-02-26T18:45:23;4.20;20.10
3037;DHT22;1528;52.550;13.408;2023-02-26T18:48:09;4.20;20.30
3037;DHT22;1528;52.550;13.408;2023-02-26T18:50:57;3.90;20.20
3037;DHT22;1528;52.550;13.408;2023-02-26T18:53:44;4.00;20.50
3037;DHT22;1528;52.550;13.408;2023-02-26T18:56:30;3.80;20.70
3037;DHT22;1528;52.550;13.408;2023-02-26T18:59:15;3.90;20.70